createdAt,value
2023-06-02T00:01:34.616Z,4.10
2023-06-02T00:04:06.409Z,4.45
2023-06-02T00:06:34.955Z,4.45
2023-06-02T00:09:06.243Z,4.63
2023-06-02T00:11:37.191Z,4.45
2023-06-02T00:14:08.029Z,4.82
2023-06-02T00:16:45.842Z,4.50
2023-06-02T00:19:14.082Z,4.60
2023-06-02T00:21:47.472Z,4.13
2023-06-02T00:24:14.623Z,4.30
2023-06-02T00:26:41.359Z,4.32
2023-06-02T00:29:08.378Z,4.20
2023-06-02T00:31:35.883Z,4.90
2023-06-02T00:34:02.819Z,4.18
2023-06-02T00:36:29.667Z,4.80
2023-06-02T00:38:56.478Z,4.47
2023-06-02T00:41:23.372Z,4.82
2023-06-02T00:43:50.307Z,4.50
2023-06-02T00:46:17.043Z,4.47
2023-06-02T00:48:44.788Z,4.95
2023-06-02T00:51:12.020Z,4.47
2023-06-02T00:53:39.478Z,4.10
2023-06-02T00:56:07.142Z,4.05
2023-06-02T00:58:39.424Z,4.25
2023-06-02T01:01:11.674Z,4.40
2023-06-02T01:03:40.596Z,4.10
2023-06-02T01:06:08.420Z,4.35
2023-06-02T01:08:38.598Z,4.13
2023-06-02T01:11:08.012Z,4.43
2023-06-02T01:13:36.078Z,4.22
2023-06-02T01:16:03.325Z,4.10
2023-06-02T01:18:32.655Z,4.20
2023-06-02T01:21:00.057Z,4.13
2023-06-02T01:23:31.174Z,4.50
2023-06-02T01:25:59.462Z,4.82
2023-06-02T01:28:27.349Z,4.00
2023-06-02T01:31:09.448Z,4.28
2023-06-02T01:33:43.912Z,3.78
2023-06-02T01:36:11.206Z,4.95
2023-06-02T01:38:41.125Z,4.13
2023-06-02T01:41:08.101Z,4.30
2023-06-02T01:43:36.116Z,4.05
2023-06-02T01:46:03.652Z,4.60
2023-06-02T01:48:30.376Z,4.15
2023-06-02T01:50:57.128Z,3.95
2023-06-02T01:53:27.643Z,3.88
2023-06-02T01:55:55.376Z,4.00
2023-06-02T01:58:22.700Z,4.30
2023-06-02T02:00:49.418Z,3.95
2023-06-02T02:03:16.185Z,4.10
2023-06-02T02:05:43.067Z,3.90
2023-06-02T02:08:13.138Z,4.28
2023-06-02T02:10:39.823Z,3.97
2023-06-02T02:13:06.581Z,4.18
2023-06-02T02:15:33.172Z,4.47
2023-06-02T02:18:00.335Z,3.95
2023-06-02T02:20:27.783Z,4.20
2023-06-02T02:22:54.584Z,4.25
2023-06-02T02:25:21.221Z,4.00
2023-06-02T02:27:48.309Z,4.07
2023-06-02T02:30:15.406Z,4.30
2023-06-02T02:32:46.222Z,4.65
2023-06-02T02:35:13.181Z,4.07
2023-06-02T02:37:46.518Z,4.63
2023-06-02T02:40:17.438Z,4.25
2023-06-02T02:42:44.055Z,3.88
2023-06-02T02:45:10.938Z,4.10
2023-06-02T02:47:37.957Z,4.32
2023-06-02T02:50:04.785Z,4.95
2023-06-02T02:52:31.517Z,4.20
2023-06-02T02:54:58.395Z,5.10
2023-06-02T02:57:25.221Z,4.35
2023-06-02T02:59:52.168Z,4.45
2023-06-02T03:02:19.489Z,4.90
2023-06-02T03:04:47.195Z,4.85
2023-06-02T03:07:14.396Z,4.90
2023-06-02T03:09:42.136Z,4.65
2023-06-02T03:12:09.193Z,4.93
2023-06-02T03:14:35.901Z,4.72
2023-06-02T03:17:03.831Z,5.03
2023-06-02T03:19:30.868Z,4.80
2023-06-02T03:21:57.791Z,4.65
2023-06-02T03:24:25.454Z,4.50
2023-06-02T03:26:56.603Z,5.15
2023-06-02T03:29:23.948Z,4.97
2023-06-02T03:31:53.778Z,4.90
2023-06-02T03:34:21.623Z,5.18
2023-06-02T03:36:49.695Z,5.10
2023-06-02T03:39:16.736Z,5.15
2023-06-02T03:41:43.552Z,5.57
2023-06-02T03:44:10.801Z,5.32
2023-06-02T03:46:37.791Z,4.68
2023-06-02T03:49:04.594Z,4.60
2023-06-02T03:51:31.308Z,4.97
2023-06-02T03:53:58.209Z,4.93
2023-06-02T03:56:24.796Z,4.78
2023-06-02T03:58:51.407Z,5.65
2023-06-02T04:01:19.096Z,5.05
2023-06-02T04:03:46.211Z,5.65
2023-06-02T04:06:13.836Z,5.50
2023-06-02T04:08:41.031Z,5.28
2023-06-02T04:11:08.442Z,4.90
2023-06-02T04:13:35.143Z,5.45
2023-06-02T04:16:02.422Z,5.30
2023-06-02T04:18:32.179Z,5.30
2023-06-02T04:20:59.683Z,5.15
2023-06-02T04:23:26.947Z,5.57
2023-06-02T04:25:53.995Z,5.43
2023-06-02T04:28:21.045Z,5.32
2023-06-02T04:30:50.080Z,5.13
2023-06-02T04:33:16.835Z,5.57
2023-06-02T04:35:43.573Z,5.38
2023-06-02T04:38:10.623Z,6.03
2023-06-02T04:40:38.873Z,5.90
2023-06-02T04:43:05.972Z,5.90
2023-06-02T04:45:33.189Z,5.50
2023-06-02T04:48:00.182Z,5.60
2023-06-02T04:50:26.954Z,5.57
2023-06-02T04:52:53.959Z,4.88
2023-06-02T04:55:20.860Z,5.45
2023-06-02T04:57:47.833Z,5.32
2023-06-02T05:00:15.558Z,5.20
2023-06-02T05:02:42.285Z,4.88
2023-06-02T05:05:09.296Z,4.70
2023-06-02T05:07:36.591Z,5.22
2023-06-02T05:10:03.319Z,4.88
2023-06-02T05:12:30.237Z,5.32
2023-06-02T05:14:57.133Z,5.13
2023-06-02T05:17:25.283Z,4.97
2023-06-02T05:19:54.378Z,5.05
2023-06-02T05:22:22.169Z,5.10
2023-06-02T05:24:49.014Z,4.88
2023-06-02T05:27:15.807Z,4.50
2023-06-02T05:29:42.517Z,4.57
2023-06-02T05:32:09.583Z,4.72
2023-06-02T05:34:44.274Z,4.20
2023-06-02T05:37:11.060Z,4.45
2023-06-02T05:39:37.843Z,4.22
2023-06-02T05:42:04.802Z,4.10
2023-06-02T05:44:31.859Z,4.20
2023-06-02T05:46:58.506Z,4.28
2023-06-02T05:49:25.596Z,4.18
2023-06-02T05:51:52.227Z,4.20
2023-06-02T05:54:19.398Z,4.25
2023-06-02T05:56:46.456Z,4.25
2023-06-02T05:59:13.246Z,3.88
2023-06-02T06:01:39.918Z,4.28
2023-06-02T06:04:06.902Z,3.83
2023-06-02T06:06:33.631Z,4.30
2023-06-02T06:09:00.270Z,4.10
2023-06-02T06:11:27.505Z,3.60
2023-06-02T06:13:54.316Z,4.00
2023-06-02T06:16:21.277Z,3.70
2023-06-02T06:18:48.421Z,3.63
2023-06-02T06:21:15.411Z,3.53
2023-06-02T06:23:42.273Z,3.72
2023-06-02T06:26:09.474Z,3.50
2023-06-02T06:28:36.315Z,3.78
2023-06-02T06:31:03.209Z,3.83
2023-06-02T06:33:31.444Z,3.88
2023-06-02T06:35:58.273Z,3.55
2023-06-02T06:38:24.950Z,3.22
2023-06-02T06:40:52.255Z,3.53
2023-06-02T06:45:48.712Z,3.40
2023-06-02T06:48:15.678Z,3.13
2023-06-02T06:50:42.478Z,3.40
2023-06-02T06:53:10.034Z,3.50
2023-06-02T06:55:37.178Z,3.25
2023-06-02T06:58:03.892Z,2.88
2023-06-02T07:00:31.605Z,3.17
2023-06-02T07:02:58.674Z,3.22
2023-06-02T07:05:26.143Z,3.05
2023-06-02T07:07:52.928Z,3.33
2023-06-02T07:10:19.970Z,3.60
2023-06-02T07:12:46.654Z,3.63
2023-06-02T07:15:13.443Z,3.20
2023-06-02T07:17:42.025Z,3.03
2023-06-02T07:20:13.110Z,3.08
2023-06-02T07:22:40.849Z,2.85
2023-06-02T07:25:08.848Z,2.53
2023-06-02T07:27:36.074Z,3.03
2023-06-02T07:30:03.743Z,2.90
2023-06-02T07:32:30.917Z,2.60
2023-06-02T07:34:58.043Z,2.97
2023-06-02T07:37:24.681Z,3.13
2023-06-02T07:39:51.521Z,3.10
2023-06-02T07:42:20.449Z,2.80
2023-06-02T07:44:47.146Z,2.70
2023-06-02T07:47:14.132Z,2.80
2023-06-02T07:49:41.053Z,3.00
2023-06-02T07:52:07.668Z,2.88
2023-06-02T07:54:34.910Z,2.95
2023-06-02T07:57:01.569Z,3.35
2023-06-02T07:59:28.320Z,3.20
2023-06-02T08:01:55.455Z,2.90
2023-06-02T08:04:27.224Z,3.08
2023-06-02T08:06:56.591Z,2.70
2023-06-02T08:09:24.068Z,2.88
2023-06-02T08:11:52.023Z,3.10
2023-06-02T08:14:19.239Z,3.00
2023-06-02T08:16:57.657Z,2.60
2023-06-02T08:19:26.128Z,2.47
2023-06-02T08:21:53.135Z,3.03
2023-06-02T08:24:22.041Z,2.50
2023-06-02T08:26:49.900Z,2.60
2023-06-02T08:29:17.151Z,2.67
2023-06-02T08:31:44.246Z,3.08
2023-06-02T08:34:12.101Z,2.50
2023-06-02T08:36:39.169Z,3.05
2023-06-02T08:39:09.125Z,2.90
2023-06-02T08:41:39.986Z,3.22
2023-06-02T08:44:07.203Z,3.10
2023-06-02T08:46:34.257Z,2.83
2023-06-02T08:49:02.406Z,3.28
2023-06-02T08:51:32.890Z,2.80
2023-06-02T08:54:00.507Z,2.97
2023-06-02T08:56:27.525Z,3.10
2023-06-02T08:58:54.244Z,3.33
2023-06-02T09:01:20.933Z,3.13
2023-06-02T09:03:49.523Z,3.50
2023-06-02T09:06:29.927Z,3.30
2023-06-02T09:09:01.780Z,3.20
2023-06-02T09:11:30.490Z,3.05
2023-06-02T09:13:57.332Z,3.20
2023-06-02T09:16:35.315Z,3.30
2023-06-02T09:19:02.178Z,3.70
2023-06-02T09:21:31.264Z,3.50
2023-06-02T09:24:12.280Z,3.15
2023-06-02T09:26:49.849Z,3.10
2023-06-02T09:29:17.168Z,3.35
2023-06-02T09:31:45.164Z,3.60
2023-06-02T09:34:16.649Z,3.60
2023-06-02T09:36:45.174Z,3.10
2023-06-02T09:39:12.253Z,3.30
2023-06-02T09:41:40.381Z,3.13
2023-06-02T09:44:15.082Z,3.05
2023-06-02T09:46:44.519Z,3.00
2023-06-02T09:49:12.418Z,3.88
2023-06-02T09:51:40.137Z,3.90
2023-06-02T09:54:09.396Z,4.22
2023-06-02T09:56:40.096Z,4.57
2023-06-02T09:59:07.965Z,4.22
2023-06-02T10:01:36.290Z,4.50
2023-06-02T10:04:04.369Z,3.78
2023-06-02T10:06:46.288Z,4.00
2023-06-02T10:09:59.161Z,4.78
2023-06-02T10:12:34.176Z,4.65
2023-06-02T10:15:32.642Z,4.55
2023-06-02T10:18:33.185Z,4.57
2023-06-02T10:21:14.706Z,5.18
2023-06-02T10:23:49.215Z,4.78
2023-06-02T10:26:36.966Z,4.53
2023-06-02T10:29:06.454Z,4.22
2023-06-02T10:31:33.207Z,4.72
2023-06-02T10:34:02.083Z,4.43
2023-06-02T10:36:29.904Z,5.20
2023-06-02T10:38:57.163Z,5.05
2023-06-02T10:42:01.548Z,4.80
2023-06-02T10:44:32.473Z,4.95
2023-06-02T10:47:21.687Z,4.57
2023-06-02T10:49:57.090Z,5.07
2023-06-02T10:52:24.212Z,4.47
2023-06-02T10:55:09.339Z,4.30
2023-06-02T10:57:56.221Z,4.30
2023-06-02T11:00:47.126Z,4.35
2023-06-02T11:03:17.045Z,4.03
2023-06-02T11:05:48.361Z,3.78
2023-06-02T11:08:23.332Z,3.95
2023-06-02T11:10:59.968Z,3.53
2023-06-02T11:13:28.010Z,3.92
2023-06-02T11:15:54.714Z,3.97
2023-06-02T11:18:24.237Z,4.10
2023-06-02T11:20:52.448Z,3.90
2023-06-02T11:23:20.160Z,3.40
2023-06-02T11:26:11.698Z,3.78
2023-06-02T11:28:38.405Z,3.50
2023-06-02T11:31:19.499Z,3.70
2023-06-02T11:33:52.310Z,4.18
2023-06-02T11:36:30.221Z,3.55
2023-06-02T11:39:04.266Z,3.30
2023-06-02T11:41:31.086Z,4.07
2023-06-02T11:44:08.966Z,3.40
2023-06-02T11:46:36.008Z,3.70
2023-06-02T11:49:03.392Z,3.40
2023-06-02T11:51:31.852Z,3.88
2023-06-02T11:54:00.392Z,3.83
2023-06-02T11:56:27.888Z,3.92
2023-06-02T11:58:54.879Z,3.83
2023-06-02T12:01:23.108Z,3.72
2023-06-02T12:04:03.817Z,3.72
2023-06-02T12:06:32.110Z,3.65
2023-06-02T12:09:19.585Z,3.55
2023-06-02T12:11:48.388Z,3.70
2023-06-02T12:14:15.953Z,3.38
2023-06-02T12:16:45.184Z,3.70
2023-06-02T12:19:17.034Z,3.70
2023-06-02T12:21:47.702Z,3.38
2023-06-02T12:24:40.664Z,3.53
2023-06-02T12:27:09.023Z,3.08
2023-06-02T12:29:37.305Z,3.33
2023-06-02T12:32:06.746Z,3.00
2023-06-02T12:34:33.992Z,3.60
2023-06-02T12:37:02.346Z,3.08
2023-06-02T12:39:28.976Z,3.55
2023-06-02T12:41:56.001Z,3.28
2023-06-02T12:44:22.592Z,3.40
2023-06-02T12:46:49.792Z,3.70
2023-06-02T12:49:16.917Z,3.47
2023-06-02T12:51:44.094Z,3.83
2023-06-02T12:54:10.817Z,3.63
2023-06-02T12:56:41.915Z,3.40
2023-06-02T12:59:13.104Z,3.43
2023-06-02T13:01:40.696Z,3.40
2023-06-02T13:04:08.584Z,3.70
2023-06-02T13:06:37.128Z,3.70
2023-06-02T13:09:04.603Z,3.03
2023-06-02T13:11:31.902Z,3.60
2023-06-02T13:13:59.845Z,3.38
2023-06-02T13:16:27.659Z,3.40
2023-06-02T13:18:54.575Z,3.22
2023-06-02T13:21:21.350Z,3.47
2023-06-02T13:23:55.479Z,3.50
2023-06-02T13:26:22.465Z,3.45
2023-06-02T13:28:49.267Z,3.38
2023-06-02T13:31:16.490Z,6.88
2023-06-02T13:33:43.143Z,5.40
2023-06-02T13:36:09.782Z,4.53
2023-06-02T13:38:36.647Z,4.30
2023-06-02T13:41:03.794Z,4.65
2023-06-02T13:43:30.626Z,3.30
2023-06-02T13:45:57.520Z,3.75
2023-06-02T13:48:24.267Z,3.88
2023-06-02T13:50:51.054Z,3.65
2023-06-02T13:53:18.020Z,4.00
2023-06-02T13:55:44.830Z,5.05
2023-06-02T13:58:11.521Z,6.88
2023-06-02T14:00:38.405Z,5.40
2023-06-02T14:03:05.468Z,4.38
2023-06-02T14:05:32.325Z,3.70
2023-06-02T14:07:59.396Z,3.60
2023-06-02T14:10:26.606Z,3.30
2023-06-02T14:12:53.404Z,3.30
2023-06-02T14:15:20.658Z,2.88
2023-06-02T14:17:47.410Z,3.53
2023-06-02T14:20:14.159Z,3.53
2023-06-02T14:22:43.280Z,4.10
2023-06-02T14:25:10.579Z,3.35
2023-06-02T14:27:37.256Z,3.13
2023-06-02T14:30:04.759Z,3.05
2023-06-02T14:32:31.447Z,3.40
2023-06-02T14:34:58.152Z,3.80
2023-06-02T14:37:25.368Z,3.28
2023-06-02T14:39:52.031Z,3.53
2023-06-02T14:42:18.629Z,3.60
2023-06-02T14:44:45.570Z,3.50
2023-06-02T14:47:12.311Z,3.35
2023-06-02T14:49:40.736Z,3.20
2023-06-02T14:52:09.683Z,3.17
2023-06-02T14:54:36.345Z,3.63
2023-06-02T14:57:06.584Z,3.50
2023-06-02T14:59:33.603Z,3.67
2023-06-02T15:02:00.274Z,3.35
2023-06-02T15:04:26.988Z,3.33
2023-06-02T15:06:54.000Z,3.58
2023-06-02T15:09:20.651Z,3.50
2023-06-02T15:11:47.351Z,3.33
2023-06-02T15:14:14.360Z,3.17
2023-06-02T15:16:41.094Z,3.60
2023-06-02T15:19:09.582Z,3.17
2023-06-02T15:21:37.275Z,3.22
2023-06-02T15:24:04.469Z,3.00
2023-06-02T15:26:31.645Z,3.10
2023-06-02T15:28:58.739Z,3.20
2023-06-02T15:31:25.471Z,3.22
2023-06-02T15:33:52.116Z,3.30
2023-06-02T15:36:21.065Z,2.80
2023-06-02T15:38:47.696Z,3.70
2023-06-02T15:41:14.303Z,3.08
2023-06-02T15:43:42.459Z,4.03
2023-06-02T15:46:09.237Z,3.72
2023-06-02T15:48:37.046Z,3.55
2023-06-02T15:51:06.041Z,3.40
2023-06-02T15:53:32.646Z,3.72
2023-06-02T15:55:59.238Z,3.30
2023-06-02T15:58:26.296Z,3.72
2023-06-02T16:00:52.906Z,3.95
2023-06-02T16:03:19.525Z,4.03
2023-06-02T16:05:46.483Z,5.22
2023-06-02T16:08:13.114Z,3.83
2023-06-02T16:10:39.801Z,3.38
2023-06-02T16:13:06.777Z,4.07
2023-06-02T16:15:33.675Z,4.13
2023-06-02T16:18:00.523Z,4.72
2023-06-02T16:20:27.509Z,4.32
2023-06-02T16:22:54.080Z,3.83
2023-06-02T16:25:22.283Z,3.63
2023-06-02T16:27:50.221Z,3.47
2023-06-02T16:30:16.953Z,3.70
2023-06-02T16:32:43.758Z,4.20
2023-06-02T16:35:11.512Z,4.18
2023-06-02T16:37:38.134Z,4.22
2023-06-02T16:40:05.381Z,3.88
2023-06-02T16:42:33.668Z,3.90
2023-06-02T16:45:00.805Z,3.90
2023-06-02T16:47:27.372Z,4.15
2023-06-02T16:49:54.176Z,4.10
2023-06-02T16:52:20.811Z,4.05
2023-06-02T16:54:47.399Z,4.47
2023-06-02T16:57:14.349Z,4.30
2023-06-02T16:59:40.973Z,4.70
2023-06-02T17:02:07.745Z,4.32
2023-06-02T17:04:34.620Z,4.78
2023-06-02T17:07:01.316Z,4.18
2023-06-02T17:09:27.943Z,4.03
2023-06-02T17:11:54.896Z,5.72
2023-06-02T17:14:21.542Z,4.65
2023-06-02T17:16:48.208Z,4.03
2023-06-02T17:19:16.016Z,4.25
2023-06-02T17:21:42.938Z,4.13
2023-06-02T17:24:11.195Z,4.68
2023-06-02T17:26:38.847Z,4.68
2023-06-02T17:29:05.713Z,4.25
2023-06-02T17:31:32.413Z,4.25
2023-06-02T17:33:59.278Z,4.70
2023-06-02T17:36:26.067Z,5.30
2023-06-02T17:38:52.673Z,6.00
2023-06-02T17:41:19.730Z,5.57
2023-06-02T17:43:51.632Z,6.47
2023-06-02T17:46:18.419Z,7.50
2023-06-02T17:48:46.145Z,8.43
2023-06-02T17:51:12.982Z,8.73
2023-06-02T17:53:41.396Z,7.93
2023-06-02T17:56:08.416Z,7.55
2023-06-02T17:58:35.178Z,7.65
2023-06-02T18:01:01.908Z,6.45
2023-06-02T18:03:28.902Z,6.95
2023-06-02T18:05:56.096Z,6.88
2023-06-02T18:08:22.704Z,6.97
2023-06-02T18:10:49.993Z,5.53
2023-06-02T18:13:16.666Z,5.72
2023-06-02T18:15:43.469Z,5.63
2023-06-02T18:18:10.918Z,5.47
2023-06-02T18:20:37.700Z,5.72
2023-06-02T18:23:07.557Z,5.53
2023-06-02T18:25:34.580Z,5.35
2023-06-02T18:28:01.481Z,5.93
2023-06-02T18:30:28.398Z,5.20
2023-06-02T18:32:55.343Z,5.63
2023-06-02T18:35:22.022Z,6.70
2023-06-02T18:37:48.769Z,5.28
2023-06-02T18:40:15.597Z,5.88
2023-06-02T18:42:42.596Z,5.88
2023-06-02T18:45:09.448Z,5.43
2023-06-02T18:47:37.150Z,5.53
2023-06-02T18:50:04.534Z,6.80
2023-06-02T18:52:32.577Z,6.18
2023-06-02T18:54:59.653Z,6.90
2023-06-02T18:57:26.535Z,7.57
2023-06-02T18:59:53.621Z,7.03
2023-06-02T19:02:20.856Z,6.60
2023-06-02T19:04:47.676Z,6.20
2023-06-02T19:07:15.118Z,6.00
2023-06-02T19:09:41.959Z,6.07
2023-06-02T19:12:10.697Z,6.05
2023-06-02T19:14:38.795Z,6.28
2023-06-02T19:17:06.245Z,6.07
2023-06-02T19:19:34.428Z,5.97
2023-06-02T19:22:01.969Z,5.93
2023-06-02T19:24:29.071Z,6.65
2023-06-02T19:26:55.860Z,6.50
2023-06-02T19:29:22.814Z,6.03
2023-06-02T19:31:49.943Z,5.65
2023-06-02T19:34:16.831Z,6.03
2023-06-02T19:36:43.530Z,6.80
2023-06-02T19:39:10.734Z,6.07
2023-06-02T19:41:37.418Z,5.85
2023-06-02T19:44:04.747Z,5.82
2023-06-02T19:46:31.912Z,5.90
2023-06-02T19:48:58.687Z,6.00
2023-06-02T19:51:25.457Z,5.60
2023-06-02T19:53:52.230Z,5.32
2023-06-02T19:56:18.905Z,5.10
2023-06-02T19:58:45.566Z,4.75
2023-06-02T20:01:12.521Z,4.82
2023-06-02T20:03:39.428Z,5.07
2023-06-02T20:06:08.364Z,4.70
2023-06-02T20:08:35.819Z,5.40
2023-06-02T20:11:03.704Z,5.28
2023-06-02T20:13:30.827Z,4.80
2023-06-02T20:15:58.023Z,4.90
2023-06-02T20:18:24.917Z,5.25
2023-06-02T20:20:51.570Z,5.32
2023-06-02T20:23:18.574Z,5.38
2023-06-02T20:25:45.575Z,4.95
2023-06-02T20:28:12.295Z,5.60
2023-06-02T20:30:39.950Z,4.93
2023-06-02T20:33:06.688Z,5.18
2023-06-02T20:35:34.046Z,5.25
2023-06-02T20:38:01.291Z,5.05
2023-06-02T20:40:27.868Z,5.00
2023-06-02T20:42:54.469Z,5.10
2023-06-02T20:45:22.024Z,4.70
2023-06-02T20:47:48.979Z,4.93
2023-06-02T20:50:15.825Z,5.35
2023-06-02T20:52:42.914Z,5.10
2023-06-02T20:55:09.907Z,5.43
2023-06-02T20:57:36.493Z,5.30
2023-06-02T21:00:06.351Z,5.10
2023-06-02T21:02:33.910Z,5.47
2023-06-02T21:05:00.953Z,4.85
2023-06-02T21:07:29.637Z,6.05
2023-06-02T21:09:56.487Z,5.90
2023-06-02T21:12:23.199Z,5.65
2023-06-02T21:14:50.105Z,5.13
2023-06-02T21:17:16.833Z,5.70
2023-06-02T21:19:43.585Z,5.10
2023-06-02T21:22:10.392Z,5.03
2023-06-02T21:24:40.697Z,4.95
2023-06-02T21:27:07.786Z,5.88
2023-06-02T21:29:35.152Z,6.32
2023-06-02T21:32:01.828Z,5.25
2023-06-02T21:34:28.528Z,5.85
2023-06-02T21:36:55.516Z,5.88
2023-06-02T21:39:22.141Z,5.80
2023-06-02T21:41:48.945Z,5.80
2023-06-02T21:44:16.259Z,5.80
2023-06-02T21:46:43.698Z,5.40
2023-06-02T21:49:11.184Z,5.43
2023-06-02T21:51:38.288Z,5.63
2023-06-02T21:54:05.066Z,4.63
2023-06-02T21:56:35.232Z,6.10
2023-06-02T21:59:04.851Z,5.25
2023-06-02T22:01:32.218Z,5.13
2023-06-02T22:03:59.348Z,5.25
2023-06-02T22:06:26.492Z,5.68
2023-06-02T22:08:53.152Z,5.60
2023-06-02T22:11:26.938Z,5.68
2023-06-02T22:13:54.042Z,5.43
2023-06-02T22:16:21.095Z,5.45
2023-06-02T22:18:47.814Z,6.05
2023-06-02T22:21:15.363Z,5.40
2023-06-02T22:23:43.143Z,5.35
2023-06-02T22:26:10.252Z,5.40
2023-06-02T22:28:37.794Z,5.57
2023-06-02T22:31:05.009Z,4.78
2023-06-02T22:33:31.916Z,5.53
2023-06-02T22:35:58.687Z,5.35
2023-06-02T22:38:25.385Z,5.15
2023-06-02T22:40:52.003Z,6.20
2023-06-02T22:43:18.918Z,6.03
2023-06-02T22:45:45.608Z,7.45
2023-06-02T22:48:12.492Z,6.05
2023-06-02T22:50:39.425Z,6.80
2023-06-02T22:53:06.298Z,6.53
2023-06-02T22:55:32.871Z,6.25
2023-06-02T22:57:59.870Z,6.60
2023-06-02T23:00:26.543Z,6.55
2023-06-02T23:02:53.302Z,7.43
2023-06-02T23:05:20.438Z,6.57
2023-06-02T23:07:47.909Z,6.70
2023-06-02T23:10:16.129Z,6.50
2023-06-02T23:12:44.492Z,6.07
2023-06-02T23:15:11.678Z,6.10
2023-06-02T23:17:40.417Z,5.50
2023-06-02T23:20:09.725Z,6.00
2023-06-02T23:22:36.332Z,6.30
2023-06-02T23:25:03.864Z,6.35
2023-06-02T23:27:31.617Z,6.80
2023-06-02T23:29:58.765Z,6.65
2023-06-02T23:32:25.576Z,5.95
2023-06-02T23:34:52.441Z,5.57
2023-06-02T23:37:19.052Z,5.45
2023-06-02T23:39:46.972Z,5.03
2023-06-02T23:42:13.738Z,6.00
2023-06-02T23:44:40.396Z,5.55
2023-06-02T23:47:07.205Z,5.35
2023-06-02T23:49:34.040Z,5.82
2023-06-02T23:52:00.705Z,4.93
2023-06-02T23:54:27.375Z,5.57
2023-06-02T23:56:54.204Z,4.75
2023-06-02T23:59:20.945Z,5.03
